sensor_id;sensor_type;location;lat;lon;timestamp;P1;durP1;ratioP1;P2;durP2;ratioP2
13171;SDS011;6651;53.200;10.432;2022-08-03T00:01:41;4.93;;;3.70;;
13171;SDS011;6651;53.200;10.432;2022-08-03T00:04:07;4.18;;;3.78;;
13171;SDS011;6651;53.200;10.432;2022-08-03T00:06:34;5.03;;;3.58;;
13171;SDS011;6651;53.200;10.432;2022-08-03T00:09:00;6.40;;;3.72;;
13171;SDS011;6651;53.200;10.432;2022-08-03T00:11:26;4.10;;;3.60;;
13171;SDS011;6651;53.200;10.432;2022-08-03T00:13:52;4.22;;;3.58;;
13171;SDS011;6651;53.200;10.432;2022-08-03T00:16:18;4.38;;;3.83;;
13171;SDS011;6651;53.200;10.432;2022-08-03T00:18:44;5.55;;;3.70;;
13171;SDS011;6651;53.200;10.432;2022-08-03T00:21:10;4.03;;;3.60;;
13171;SDS011;6651;53.200;10.432;2022-08-03T00:23:37;5.00;;;3.70;;
13171;SDS011;6651;53.200;10.432;2022-08-03T00:26:03;4.88;;;3.85;;
13171;SDS011;6651;53.200;10.432;2022-08-03T00:28:29;5.78;;;3.95;;
13171;SDS011;6651;53.200;10.432;2022-08-03T00:30:55;4.35;;;3.70;;
13171;SDS011;6651;53.200;10.432;2022-08-03T00:33:21;5.13;;;3.90;;
13171;SDS011;6651;53.200;10.432;2022-08-03T00:35:47;4.22;;;3.83;;
13171;SDS011;6651;53.200;10.432;2022-08-03T00:38:13;5.00;;;4.05;;
13171;SDS011;6651;53.200;10.432;2022-08-03T00:40:39;6.55;;;3.75;;
13171;SDS011;6651;53.200;10.432;2022-08-03T00:43:06;6.00;;;3.70;;
13171;SDS011;6651;53.200;10.432;2022-08-03T00:45:36;4.40;;;3.75;;
13171;SDS011;6651;53.200;10.432;2022-08-03T00:48:03;4.03;;;3.70;;
13171;SDS011;6651;53.200;10.432;2022-08-03T00:50:30;4.03;;;3.63;;
13171;SDS011;6651;53.200;10.432;2022-08-03T00:52:57;5.75;;;3.97;;
13171;SDS011;6651;53.200;10.432;2022-08-03T00:55:24;7.55;;;4.38;;
13171;SDS011;6651;53.200;10.432;2022-08-03T00:57:50;4.82;;;3.60;;
13171;SDS011;6651;53.200;10.432;2022-08-03T01:00:20;3.90;;;3.50;;
13171;SDS011;6651;53.200;10.432;2022-08-03T01:02:46;4.10;;;3.60;;
13171;SDS011;6651;53.200;10.432;2022-08-03T01:05:12;5.07;;;3.78;;
13171;SDS011;6651;53.200;10.432;2022-08-03T01:15:14;7.18;;;3.92;;
13171;SDS011;6651;53.200;10.432;2022-08-03T01:20:08;5.18;;;3.80;;
13171;SDS011;6651;53.200;10.432;2022-08-03T01:25:05;4.38;;;3.95;;
13171;SDS011;6651;53.200;10.432;2022-08-03T01:30:03;4.75;;;3.90;;
13171;SDS011;6651;53.200;10.432;2022-08-03T01:32:41;4.70;;;3.90;;
13171;SDS011;6651;53.200;10.432;2022-08-03T01:35:12;4.38;;;3.97;;
13171;SDS011;6651;53.200;10.432;2022-08-03T01:37:40;4.90;;;3.95;;
13171;SDS011;6651;53.200;10.432;2022-08-03T01:40:07;4.60;;;4.20;;
13171;SDS011;6651;53.200;10.432;2022-08-03T01:42:33;4.53;;;4.05;;
13171;SDS011;6651;53.200;10.432;2022-08-03T01:45:01;4.78;;;4.07;;
13171;SDS011;6651;53.200;10.432;2022-08-03T01:47:28;5.90;;;4.00;;
13171;SDS011;6651;53.200;10.432;2022-08-03T01:49:55;4.68;;;4.20;;
13171;SDS011;6651;53.200;10.432;2022-08-03T01:52:22;4.03;;;3.72;;
13171;SDS011;6651;53.200;10.432;2022-08-03T01:54:49;4.28;;;3.88;;
13171;SDS011;6651;53.200;10.432;2022-08-03T01:57:16;5.07;;;4.18;;
13171;SDS011;6651;53.200;10.432;2022-08-03T01:59:44;4.88;;;4.40;;
13171;SDS011;6651;53.200;10.432;2022-08-03T02:02:12;4.20;;;3.80;;
13171;SDS011;6651;53.200;10.432;2022-08-03T02:04:40;4.30;;;3.90;;
13171;SDS011;6651;53.200;10.432;2022-08-03T02:07:06;4.40;;;4.00;;
13171;SDS011;6651;53.200;10.432;2022-08-03T02:09:32;4.68;;;4.00;;
13171;SDS011;6651;53.200;10.432;2022-08-03T02:11:59;4.53;;;4.00;;
13171;SDS011;6651;53.200;10.432;2022-08-03T02:14:25;5.82;;;4.30;;
13171;SDS011;6651;53.200;10.432;2022-08-03T02:16:52;4.43;;;4.03;;
13171;SDS011;6651;53.200;10.432;2022-08-03T02:19:19;4.20;;;3.90;;
13171;SDS011;6651;53.200;10.432;2022-08-03T02:21:45;4.53;;;3.58;;
13171;SDS011;6651;53.200;10.432;2022-08-03T02:24:11;4.40;;;4.00;;
13171;SDS011;6651;53.200;10.432;2022-08-03T02:26:37;4.07;;;3.67;;
13171;SDS011;6651;53.200;10.432;2022-08-03T02:29:06;5.68;;;4.10;;
13171;SDS011;6651;53.200;10.432;2022-08-03T02:31:32;4.38;;;3.97;;
13171;SDS011;6651;53.200;10.432;2022-08-03T02:34:00;6.65;;;4.40;;
13171;SDS011;6651;53.200;10.432;2022-08-03T02:36:28;4.18;;;3.78;;
13171;SDS011;6651;53.200;10.432;2022-08-03T02:38:56;4.53;;;4.00;;
13171;SDS011;6651;53.200;10.432;2022-08-03T02:41:26;5.55;;;4.38;;
13171;SDS011;6651;53.200;10.432;2022-08-03T02:43:54;4.40;;;3.97;;
13171;SDS011;6651;53.200;10.432;2022-08-03T02:46:21;4.22;;;3.85;;
13171;SDS011;6651;53.200;10.432;2022-08-03T02:48:49;4.55;;;4.10;;
13171;SDS011;6651;53.200;10.432;2022-08-03T02:51:17;4.93;;;4.43;;
13171;SDS011;6651;53.200;10.432;2022-08-03T02:53:44;4.78;;;4.38;;
13171;SDS011;6651;53.200;10.432;2022-08-03T02:56:10;4.47;;;4.07;;
13171;SDS011;6651;53.200;10.432;2022-08-03T02:58:38;4.30;;;4.00;;
13171;SDS011;6651;53.200;10.432;2022-08-03T03:01:04;4.97;;;4.32;;
13171;SDS011;6651;53.200;10.432;2022-08-03T03:03:31;6.35;;;4.20;;
13171;SDS011;6651;53.200;10.432;2022-08-03T03:05:58;4.60;;;4.20;;
13171;SDS011;6651;53.200;10.432;2022-08-03T03:08:24;4.68;;;4.28;;
13171;SDS011;6651;53.200;10.432;2022-08-03T03:10:53;4.90;;;4.50;;
13171;SDS011;6651;53.200;10.432;2022-08-03T03:13:20;4.20;;;3.80;;
13171;SDS011;6651;53.200;10.432;2022-08-03T03:15:47;5.22;;;4.20;;
13171;SDS011;6651;53.200;10.432;2022-08-03T03:18:13;6.25;;;4.20;;
13171;SDS011;6651;53.200;10.432;2022-08-03T03:20:39;4.22;;;3.90;;
13171;SDS011;6651;53.200;10.432;2022-08-03T03:23:05;6.22;;;4.35;;
13171;SDS011;6651;53.200;10.432;2022-08-03T03:25:32;5.03;;;4.53;;
13171;SDS011;6651;53.200;10.432;2022-08-03T03:27:58;5.25;;;4.60;;
13171;SDS011;6651;53.200;10.432;2022-08-03T03:30:25;4.78;;;4.03;;
13171;SDS011;6651;53.200;10.432;2022-08-03T03:32:51;5.30;;;4.00;;
13171;SDS011;6651;53.200;10.432;2022-08-03T03:35:17;4.60;;;4.10;;
13171;SDS011;6651;53.200;10.432;2022-08-03T03:37:43;5.70;;;4.72;;
13171;SDS011;6651;53.200;10.432;2022-08-03T03:40:10;5.57;;;4.65;;
13171;SDS011;6651;53.200;10.432;2022-08-03T03:42:36;5.07;;;4.15;;
13171;SDS011;6651;53.200;10.432;2022-08-03T03:45:03;5.00;;;4.50;;
13171;SDS011;6651;53.200;10.432;2022-08-03T03:47:29;4.55;;;4.15;;
13171;SDS011;6651;53.200;10.432;2022-08-03T03:49:56;5.20;;;4.70;;
13171;SDS011;6651;53.200;10.432;2022-08-03T03:52:22;4.80;;;4.30;;
13171;SDS011;6651;53.200;10.432;2022-08-03T03:54:48;5.18;;;4.68;;
13171;SDS011;6651;53.200;10.432;2022-08-03T03:57:14;5.22;;;4.72;;
13171;SDS011;6651;53.200;10.432;2022-08-03T03:59:40;6.10;;;4.70;;
13171;SDS011;6651;53.200;10.432;2022-08-03T04:02:07;4.68;;;4.28;;
13171;SDS011;6651;53.200;10.432;2022-08-03T04:04:34;4.78;;;4.35;;
13171;SDS011;6651;53.200;10.432;2022-08-03T04:07:19;4.90;;;4.43;;
13171;SDS011;6651;53.200;10.432;2022-08-03T04:10:04;4.97;;;4.55;;
13171;SDS011;6651;53.200;10.432;2022-08-03T04:12:51;4.75;;;4.35;;
13171;SDS011;6651;53.200;10.432;2022-08-03T04:15:18;5.57;;;5.00;;
13171;SDS011;6651;53.200;10.432;2022-08-03T04:17:45;7.05;;;5.05;;
13171;SDS011;6651;53.200;10.432;2022-08-03T04:20:12;5.68;;;4.40;;
13171;SDS011;6651;53.200;10.432;2022-08-03T04:22:41;5.30;;;4.80;;
13171;SDS011;6651;53.200;10.432;2022-08-03T04:25:08;5.00;;;4.50;;
13171;SDS011;6651;53.200;10.432;2022-08-03T04:27:38;5.10;;;4.60;;
13171;SDS011;6651;53.200;10.432;2022-08-03T04:30:05;4.65;;;4.22;;
13171;SDS011;6651;53.200;10.432;2022-08-03T04:32:31;5.28;;;4.78;;
13171;SDS011;6651;53.200;10.432;2022-08-03T04:34:58;5.32;;;4.82;;
13171;SDS011;6651;53.200;10.432;2022-08-03T04:40:19;5.65;;;5.15;;
13171;SDS011;6651;53.200;10.432;2022-08-03T04:42:45;5.15;;;4.70;;
13171;SDS011;6651;53.200;10.432;2022-08-03T04:45:12;6.70;;;5.22;;
13171;SDS011;6651;53.200;10.432;2022-08-03T04:47:39;5.53;;;4.82;;
13171;SDS011;6651;53.200;10.432;2022-08-03T04:50:06;5.90;;;5.30;;
13171;SDS011;6651;53.200;10.432;2022-08-03T04:52:33;5.60;;;5.10;;
13171;SDS011;6651;53.200;10.432;2022-08-03T04:54:59;5.47;;;4.97;;
13171;SDS011;6651;53.200;10.432;2022-08-03T04:57:25;6.35;;;4.97;;
13171;SDS011;6651;53.200;10.432;2022-08-03T04:59:51;5.88;;;4.65;;
13171;SDS011;6651;53.200;10.432;2022-08-03T05:02:20;7.32;;;4.97;;
13171;SDS011;6651;53.200;10.432;2022-08-03T05:04:47;5.40;;;4.90;;
13171;SDS011;6651;53.200;10.432;2022-08-03T05:07:13;5.53;;;4.85;;
13171;SDS011;6651;53.200;10.432;2022-08-03T05:09:39;5.47;;;4.50;;
13171;SDS011;6651;53.200;10.432;2022-08-03T05:12:05;5.38;;;4.88;;
13171;SDS011;6651;53.200;10.432;2022-08-03T05:14:32;5.40;;;4.90;;
13171;SDS011;6651;53.200;10.432;2022-08-03T05:16:58;4.65;;;4.25;;
13171;SDS011;6651;53.200;10.432;2022-08-03T05:19:24;5.80;;;5.20;;
13171;SDS011;6651;53.200;10.432;2022-08-03T05:21:50;6.05;;;4.95;;
13171;SDS011;6651;53.200;10.432;2022-08-03T05:24:16;5.40;;;4.90;;
13171;SDS011;6651;53.200;10.432;2022-08-03T05:26:42;6.40;;;4.80;;
13171;SDS011;6651;53.200;10.432;2022-08-03T05:29:08;7.32;;;4.65;;
13171;SDS011;6651;53.200;10.432;2022-08-03T05:31:34;6.25;;;4.55;;
13171;SDS011;6651;53.200;10.432;2022-08-03T05:34:00;6.18;;;4.68;;
13171;SDS011;6651;53.200;10.432;2022-08-03T05:36:26;5.65;;;4.40;;
13171;SDS011;6651;53.200;10.432;2022-08-03T05:38:52;5.35;;;4.70;;
13171;SDS011;6651;53.200;10.432;2022-08-03T05:41:18;7.28;;;4.18;;
13171;SDS011;6651;53.200;10.432;2022-08-03T05:43:44;7.90;;;4.45;;
13171;SDS011;6651;53.200;10.432;2022-08-03T05:46:11;4.95;;;4.45;;
13171;SDS011;6651;53.200;10.432;2022-08-03T05:48:37;6.55;;;4.40;;
13171;SDS011;6651;53.200;10.432;2022-08-03T05:51:03;6.55;;;4.40;;
13171;SDS011;6651;53.200;10.432;2022-08-03T05:53:35;5.88;;;4.32;;
13171;SDS011;6651;53.200;10.432;2022-08-03T05:56:01;7.13;;;4.38;;
13171;SDS011;6651;53.200;10.432;2022-08-03T05:58:28;5.15;;;4.38;;
13171;SDS011;6651;53.200;10.432;2022-08-03T06:00:54;5.13;;;4.38;;
13171;SDS011;6651;53.200;10.432;2022-08-03T06:03:20;4.75;;;4.07;;
13171;SDS011;6651;53.200;10.432;2022-08-03T06:05:46;6.50;;;4.00;;
13171;SDS011;6651;53.200;10.432;2022-08-03T06:08:12;5.32;;;4.00;;
13171;SDS011;6651;53.200;10.432;2022-08-03T06:10:38;4.97;;;3.88;;
13171;SDS011;6651;53.200;10.432;2022-08-03T06:13:04;4.63;;;3.97;;
13171;SDS011;6651;53.200;10.432;2022-08-03T06:15:30;4.00;;;3.60;;
13171;SDS011;6651;53.200;10.432;2022-08-03T06:17:57;6.00;;;4.43;;
13171;SDS011;6651;53.200;10.432;2022-08-03T06:20:23;4.63;;;3.80;;
13171;SDS011;6651;53.200;10.432;2022-08-03T06:22:49;6.72;;;3.72;;
13171;SDS011;6651;53.200;10.432;2022-08-03T06:25:15;4.03;;;3.63;;
13171;SDS011;6651;53.200;10.432;2022-08-03T06:27:42;4.75;;;3.85;;
13171;SDS011;6651;53.200;10.432;2022-08-03T06:30:08;4.03;;;3.67;;
13171;SDS011;6651;53.200;10.432;2022-08-03T06:32:35;4.68;;;3.88;;
13171;SDS011;6651;53.200;10.432;2022-08-03T06:35:01;5.55;;;4.00;;
13171;SDS011;6651;53.200;10.432;2022-08-03T06:37:28;4.18;;;3.53;;
13171;SDS011;6651;53.200;10.432;2022-08-03T06:39:54;4.18;;;3.35;;
13171;SDS011;6651;53.200;10.432;2022-08-03T06:42:20;5.65;;;3.53;;
13171;SDS011;6651;53.200;10.432;2022-08-03T06:44:46;3.72;;;3.28;;
13171;SDS011;6651;53.200;10.432;2022-08-03T06:47:12;3.58;;;3.20;;
13171;SDS011;6651;53.200;10.432;2022-08-03T06:49:38;5.15;;;3.22;;
13171;SDS011;6651;53.200;10.432;2022-08-03T06:52:05;4.10;;;3.28;;
13171;SDS011;6651;53.200;10.432;2022-08-03T06:54:31;3.85;;;3.13;;
13171;SDS011;6651;53.200;10.432;2022-08-03T06:56:57;3.70;;;3.40;;
13171;SDS011;6651;53.200;10.432;2022-08-03T06:59:23;4.72;;;3.38;;
13171;SDS011;6651;53.200;10.432;2022-08-03T07:01:49;5.95;;;3.42;;
13171;SDS011;6651;53.200;10.432;2022-08-03T07:04:15;5.78;;;3.65;;
13171;SDS011;6651;53.200;10.432;2022-08-03T07:06:41;4.03;;;3.00;;
13171;SDS011;6651;53.200;10.432;2022-08-03T07:09:07;3.70;;;3.25;;
13171;SDS011;6651;53.200;10.432;2022-08-03T07:11:33;3.67;;;3.05;;
13171;SDS011;6651;53.200;10.432;2022-08-03T07:13:59;4.60;;;3.00;;
13171;SDS011;6651;53.200;10.432;2022-08-03T07:16:25;3.88;;;3.10;;
13171;SDS011;6651;53.200;10.432;2022-08-03T07:18:51;6.05;;;2.60;;
13171;SDS011;6651;53.200;10.432;2022-08-03T07:21:17;4.18;;;2.90;;
13171;SDS011;6651;53.200;10.432;2022-08-03T07:23:43;5.03;;;2.85;;
13171;SDS011;6651;53.200;10.432;2022-08-03T07:26:09;3.03;;;2.50;;
13171;SDS011;6651;53.200;10.432;2022-08-03T07:28:35;3.17;;;2.63;;
13171;SDS011;6651;53.200;10.432;2022-08-03T07:31:01;4.10;;;2.50;;
13171;SDS011;6651;53.200;10.432;2022-08-03T07:33:27;5.63;;;2.60;;
13171;SDS011;6651;53.200;10.432;2022-08-03T07:35:53;3.75;;;2.80;;
13171;SDS011;6651;53.200;10.432;2022-08-03T07:38:19;4.20;;;2.42;;
13171;SDS011;6651;53.200;10.432;2022-08-03T07:40:45;3.13;;;2.30;;
13171;SDS011;6651;53.200;10.432;2022-08-03T07:43:11;2.72;;;2.53;;
13171;SDS011;6651;53.200;10.432;2022-08-03T07:45:37;2.78;;;2.33;;
13171;SDS011;6651;53.200;10.432;2022-08-03T07:48:03;3.47;;;2.40;;
13171;SDS011;6651;53.200;10.432;2022-08-03T07:50:29;2.70;;;2.42;;
13171;SDS011;6651;53.200;10.432;2022-08-03T07:52:55;4.22;;;2.58;;
13171;SDS011;6651;53.200;10.432;2022-08-03T07:55:24;3.25;;;1.95;;
13171;SDS011;6651;53.200;10.432;2022-08-03T07:58:06;4.53;;;2.50;;
13171;SDS011;6651;53.200;10.432;2022-08-03T08:00:46;3.40;;;2.40;;
13171;SDS011;6651;53.200;10.432;2022-08-03T08:03:12;3.35;;;2.38;;
13171;SDS011;6651;53.200;10.432;2022-08-03T08:05:38;3.97;;;2.40;;
13171;SDS011;6651;53.200;10.432;2022-08-03T08:08:05;4.78;;;2.47;;
13171;SDS011;6651;53.200;10.432;2022-08-03T08:10:31;3.25;;;2.35;;
13171;SDS011;6651;53.200;10.432;2022-08-03T08:12:57;2.60;;;2.10;;
13171;SDS011;6651;53.200;10.432;2022-08-03T08:15:23;2.80;;;2.05;;
13171;SDS011;6651;53.200;10.432;2022-08-03T08:17:54;2.40;;;2.20;;
13171;SDS011;6651;53.200;10.432;2022-08-03T08:20:21;4.18;;;2.40;;
13171;SDS011;6651;53.200;10.432;2022-08-03T08:22:48;5.25;;;2.30;;
13171;SDS011;6651;53.200;10.432;2022-08-03T08:25:14;2.40;;;2.20;;
13171;SDS011;6651;53.200;10.432;2022-08-03T08:27:41;3.42;;;2.20;;
13171;SDS011;6651;53.200;10.432;2022-08-03T08:30:08;4.85;;;1.98;;
13171;SDS011;6651;53.200;10.432;2022-08-03T08:32:34;3.85;;;2.00;;
13171;SDS011;6651;53.200;10.432;2022-08-03T08:35:01;2.55;;;1.95;;
13171;SDS011;6651;53.200;10.432;2022-08-03T08:37:27;3.25;;;2.05;;
13171;SDS011;6651;53.200;10.432;2022-08-03T08:39:54;2.80;;;1.85;;
13171;SDS011;6651;53.200;10.432;2022-08-03T08:42:20;2.65;;;1.75;;
13171;SDS011;6651;53.200;10.432;2022-08-03T08:44:46;4.88;;;1.92;;
13171;SDS011;6651;53.200;10.432;2022-08-03T08:47:13;2.50;;;1.90;;
13171;SDS011;6651;53.200;10.432;2022-08-03T08:49:39;5.07;;;2.10;;
13171;SDS011;6651;53.200;10.432;2022-08-03T08:52:09;4.75;;;1.95;;
13171;SDS011;6651;53.200;10.432;2022-08-03T08:54:35;3.50;;;2.05;;
13171;SDS011;6651;53.200;10.432;2022-08-03T08:57:03;5.50;;;2.30;;
13171;SDS011;6651;53.200;10.432;2022-08-03T08:59:32;4.22;;;1.92;;
13171;SDS011;6651;53.200;10.432;2022-08-03T09:01:59;5.47;;;2.40;;
13171;SDS011;6651;53.200;10.432;2022-08-03T09:04:25;5.20;;;1.95;;
13171;SDS011;6651;53.200;10.432;2022-08-03T09:06:51;5.03;;;2.10;;
13171;SDS011;6651;53.200;10.432;2022-08-03T09:09:17;4.60;;;2.15;;
13171;SDS011;6651;53.200;10.432;2022-08-03T09:11:43;4.75;;;2.00;;
13171;SDS011;6651;53.200;10.432;2022-08-03T09:14:09;3.28;;;2.10;;
13171;SDS011;6651;53.200;10.432;2022-08-03T09:16:36;3.55;;;2.15;;
13171;SDS011;6651;53.200;10.432;2022-08-03T09:19:12;6.53;;;2.20;;
13171;SDS011;6651;53.200;10.432;2022-08-03T09:21:38;5.72;;;2.50;;
13171;SDS011;6651;53.200;10.432;2022-08-03T09:24:05;3.40;;;2.20;;
13171;SDS011;6651;53.200;10.432;2022-08-03T09:26:34;3.70;;;2.10;;
13171;SDS011;6651;53.200;10.432;2022-08-03T09:29:08;4.55;;;2.10;;
13171;SDS011;6651;53.200;10.432;2022-08-03T09:31:38;3.83;;;2.38;;
13171;SDS011;6651;53.200;10.432;2022-08-03T09:34:05;3.60;;;2.20;;
13171;SDS011;6651;53.200;10.432;2022-08-03T09:36:49;4.65;;;2.20;;
13171;SDS011;6651;53.200;10.432;2022-08-03T09:39:18;4.13;;;2.20;;
13171;SDS011;6651;53.200;10.432;2022-08-03T09:41:46;4.80;;;2.13;;
13171;SDS011;6651;53.200;10.432;2022-08-03T09:44:12;5.43;;;2.40;;
13171;SDS011;6651;53.200;10.432;2022-08-03T09:46:54;4.45;;;2.47;;
13171;SDS011;6651;53.200;10.432;2022-08-03T09:49:21;3.00;;;1.98;;
13171;SDS011;6651;53.200;10.432;2022-08-03T09:51:47;5.57;;;2.45;;
13171;SDS011;6651;53.200;10.432;2022-08-03T09:54:26;4.50;;;2.15;;
13171;SDS011;6651;53.200;10.432;2022-08-03T09:56:52;4.15;;;1.90;;
13171;SDS011;6651;53.200;10.432;2022-08-03T09:59:22;4.70;;;1.98;;
13171;SDS011;6651;53.200;10.432;2022-08-03T10:01:49;3.95;;;2.08;;
13171;SDS011;6651;53.200;10.432;2022-08-03T10:04:15;3.15;;;1.85;;
13171;SDS011;6651;53.200;10.432;2022-08-03T10:06:45;4.22;;;2.05;;
13171;SDS011;6651;53.200;10.432;2022-08-03T10:09:14;6.32;;;2.42;;
13171;SDS011;6651;53.200;10.432;2022-08-03T10:11:41;3.47;;;1.98;;
13171;SDS011;6651;53.200;10.432;2022-08-03T10:14:08;4.63;;;1.90;;
13171;SDS011;6651;53.200;10.432;2022-08-03T10:16:35;4.78;;;2.10;;
13171;SDS011;6651;53.200;10.432;2022-08-03T10:19:02;3.83;;;2.20;;
13171;SDS011;6651;53.200;10.432;2022-08-03T10:21:31;2.90;;;2.00;;
13171;SDS011;6651;53.200;10.432;2022-08-03T10:23:57;4.38;;;1.98;;
13171;SDS011;6651;53.200;10.432;2022-08-03T10:26:24;5.05;;;2.35;;
13171;SDS011;6651;53.200;10.432;2022-08-03T10:28:52;3.50;;;2.00;;
13171;SDS011;6651;53.200;10.432;2022-08-03T10:31:19;6.03;;;2.00;;
13171;SDS011;6651;53.200;10.432;2022-08-03T10:33:48;4.43;;;2.30;;
13171;SDS011;6651;53.200;10.432;2022-08-03T10:36:14;3.97;;;1.98;;
13171;SDS011;6651;53.200;10.432;2022-08-03T10:38:47;5.15;;;2.00;;
13171;SDS011;6651;53.200;10.432;2022-08-03T10:41:17;5.32;;;2.08;;
13171;SDS011;6651;53.200;10.432;2022-08-03T10:43:46;5.25;;;2.05;;
13171;SDS011;6651;53.200;10.432;2022-08-03T10:46:14;4.05;;;1.90;;
13171;SDS011;6651;53.200;10.432;2022-08-03T10:48:42;6.05;;;2.28;;
13171;SDS011;6651;53.200;10.432;2022-08-03T10:51:09;5.15;;;2.13;;
13171;SDS011;6651;53.200;10.432;2022-08-03T10:56:01;4.32;;;2.20;;
13171;SDS011;6651;53.200;10.432;2022-08-03T10:58:46;3.50;;;1.90;;
13171;SDS011;6651;53.200;10.432;2022-08-03T11:01:13;5.60;;;2.22;;
13171;SDS011;6651;53.200;10.432;2022-08-03T11:06:19;4.22;;;2.00;;
13171;SDS011;6651;53.200;10.432;2022-08-03T11:08:45;6.18;;;2.30;;
13171;SDS011;6651;53.200;10.432;2022-08-03T11:13:57;4.30;;;2.10;;
13171;SDS011;6651;53.200;10.432;2022-08-03T11:16:23;6.93;;;2.15;;
13171;SDS011;6651;53.200;10.432;2022-08-03T11:18:54;5.40;;;2.10;;
13171;SDS011;6651;53.200;10.432;2022-08-03T11:21:20;2.42;;;2.00;;
13171;SDS011;6651;53.200;10.432;2022-08-03T11:24:06;4.07;;;2.10;;
13171;SDS011;6651;53.200;10.432;2022-08-03T11:26:32;3.70;;;2.13;;
13171;SDS011;6651;53.200;10.432;2022-08-03T11:29:25;6.63;;;1.90;;
13171;SDS011;6651;53.200;10.432;2022-08-03T11:31:51;4.43;;;2.13;;
13171;SDS011;6651;53.200;10.432;2022-08-03T11:34:17;3.85;;;1.75;;
13171;SDS011;6651;53.200;10.432;2022-08-03T11:39:38;6.22;;;2.10;;
13171;SDS011;6651;53.200;10.432;2022-08-03T11:44:49;4.03;;;2.03;;
13171;SDS011;6651;53.200;10.432;2022-08-03T11:47:16;3.47;;;1.80;;
13171;SDS011;6651;53.200;10.432;2022-08-03T11:49:45;4.53;;;2.05;;
13171;SDS011;6651;53.200;10.432;2022-08-03T11:52:12;4.35;;;2.17;;
13171;SDS011;6651;53.200;10.432;2022-08-03T11:54:38;6.07;;;1.90;;
13171;SDS011;6651;53.200;10.432;2022-08-03T11:57:05;5.68;;;1.80;;
13171;SDS011;6651;53.200;10.432;2022-08-03T11:59:31;5.57;;;2.00;;
13171;SDS011;6651;53.200;10.432;2022-08-03T12:02:07;4.68;;;2.28;;
13171;SDS011;6651;53.200;10.432;2022-08-03T12:04:52;5.55;;;2.10;;
13171;SDS011;6651;53.200;10.432;2022-08-03T12:07:22;5.15;;;1.95;;
13171;SDS011;6651;53.200;10.432;2022-08-03T12:10:08;3.58;;;1.70;;
13171;SDS011;6651;53.200;10.432;2022-08-03T12:12:35;5.25;;;2.22;;
13171;SDS011;6651;53.200;10.432;2022-08-03T12:15:01;3.60;;;2.03;;
13171;SDS011;6651;53.200;10.432;2022-08-03T12:17:34;3.47;;;1.90;;
13171;SDS011;6651;53.200;10.432;2022-08-03T12:20:00;5.18;;;2.20;;
13171;SDS011;6651;53.200;10.432;2022-08-03T12:22:30;4.53;;;2.15;;
13171;SDS011;6651;53.200;10.432;2022-08-03T12:24:56;4.22;;;2.10;;
13171;SDS011;6651;53.200;10.432;2022-08-03T12:32:27;5.13;;;2.10;;
13171;SDS011;6651;53.200;10.432;2022-08-03T12:34:53;3.42;;;1.80;;
13171;SDS011;6651;53.200;10.432;2022-08-03T12:37:23;4.10;;;2.20;;
13171;SDS011;6651;53.200;10.432;2022-08-03T12:39:53;4.55;;;2.03;;
13171;SDS011;6651;53.200;10.432;2022-08-03T12:42:19;3.60;;;1.88;;
13171;SDS011;6651;53.200;10.432;2022-08-03T12:47:13;5.63;;;2.22;;
13171;SDS011;6651;53.200;10.432;2022-08-03T12:49:45;8.05;;;2.08;;
13171;SDS011;6651;53.200;10.432;2022-08-03T12:52:12;3.45;;;2.13;;
13171;SDS011;6651;53.200;10.432;2022-08-03T12:54:38;5.05;;;2.05;;
13171;SDS011;6651;53.200;10.432;2022-08-03T12:57:05;4.28;;;1.80;;
13171;SDS011;6651;53.200;10.432;2022-08-03T12:59:33;5.47;;;1.83;;
13171;SDS011;6651;53.200;10.432;2022-08-03T13:02:00;3.67;;;1.70;;
13171;SDS011;6651;53.200;10.432;2022-08-03T13:04:30;4.70;;;1.85;;
13171;SDS011;6651;53.200;10.432;2022-08-03T13:07:06;2.65;;;1.80;;
13171;SDS011;6651;53.200;10.432;2022-08-03T13:09:40;3.58;;;1.90;;
13171;SDS011;6651;53.200;10.432;2022-08-03T13:12:08;4.90;;;1.83;;
13171;SDS011;6651;53.200;10.432;2022-08-03T13:14:34;4.15;;;1.90;;
13171;SDS011;6651;53.200;10.432;2022-08-03T13:17:00;2.80;;;1.70;;
13171;SDS011;6651;53.200;10.432;2022-08-03T13:19:26;4.60;;;2.00;;
13171;SDS011;6651;53.200;10.432;2022-08-03T13:21:52;3.67;;;1.85;;
13171;SDS011;6651;53.200;10.432;2022-08-03T13:24:18;6.18;;;2.10;;
13171;SDS011;6651;53.200;10.432;2022-08-03T13:26:44;5.28;;;1.80;;
13171;SDS011;6651;53.200;10.432;2022-08-03T13:29:10;2.90;;;1.85;;
13171;SDS011;6651;53.200;10.432;2022-08-03T13:31:36;3.20;;;1.98;;
13171;SDS011;6651;53.200;10.432;2022-08-03T13:34:02;4.03;;;1.88;;
13171;SDS011;6651;53.200;10.432;2022-08-03T13:36:28;5.28;;;1.80;;
13171;SDS011;6651;53.200;10.432;2022-08-03T13:38:54;3.83;;;1.85;;
13171;SDS011;6651;53.200;10.432;2022-08-03T13:41:20;5.22;;;1.92;;
13171;SDS011;6651;53.200;10.432;2022-08-03T13:43:46;4.63;;;2.30;;
13171;SDS011;6651;53.200;10.432;2022-08-03T13:46:12;3.05;;;1.73;;
13171;SDS011;6651;53.200;10.432;2022-08-03T13:48:38;5.18;;;1.98;;
13171;SDS011;6651;53.200;10.432;2022-08-03T13:51:04;3.38;;;1.70;;
13171;SDS011;6651;53.200;10.432;2022-08-03T13:53:30;3.85;;;1.70;;
13171;SDS011;6651;53.200;10.432;2022-08-03T13:55:56;4.18;;;2.03;;
13171;SDS011;6651;53.200;10.432;2022-08-03T13:58:22;4.13;;;1.90;;
13171;SDS011;6651;53.200;10.432;2022-08-03T14:00:48;3.50;;;1.70;;
13171;SDS011;6651;53.200;10.432;2022-08-03T14:03:14;4.10;;;1.80;;
13171;SDS011;6651;53.200;10.432;2022-08-03T14:05:41;3.38;;;1.63;;
13171;SDS011;6651;53.200;10.432;2022-08-03T14:08:07;4.95;;;2.10;;
13171;SDS011;6651;53.200;10.432;2022-08-03T14:10:37;4.78;;;1.80;;
13171;SDS011;6651;53.200;10.432;2022-08-03T14:13:04;3.40;;;1.83;;
13171;SDS011;6651;53.200;10.432;2022-08-03T14:15:30;5.15;;;2.10;;
13171;SDS011;6651;53.200;10.432;2022-08-03T14:17:56;4.05;;;2.15;;
13171;SDS011;6651;53.200;10.432;2022-08-03T14:20:22;6.28;;;2.22;;
13171;SDS011;6651;53.200;10.432;2022-08-03T14:22:48;6.03;;;1.98;;
13171;SDS011;6651;53.200;10.432;2022-08-03T14:25:14;5.47;;;2.20;;
13171;SDS011;6651;53.200;10.432;2022-08-03T14:27:40;4.65;;;2.03;;
13171;SDS011;6651;53.200;10.432;2022-08-03T14:30:07;4.38;;;1.92;;
13171;SDS011;6651;53.200;10.432;2022-08-03T14:32:33;6.13;;;2.28;;
13171;SDS011;6651;53.200;10.432;2022-08-03T14:34:59;4.78;;;1.92;;
13171;SDS011;6651;53.200;10.432;2022-08-03T14:37:25;5.60;;;1.70;;
13171;SDS011;6651;53.200;10.432;2022-08-03T14:39:51;4.55;;;1.83;;
13171;SDS011;6651;53.200;10.432;2022-08-03T14:42:17;5.75;;;2.28;;
13171;SDS011;6651;53.200;10.432;2022-08-03T14:44:44;3.42;;;1.80;;
13171;SDS011;6651;53.200;10.432;2022-08-03T14:47:10;5.25;;;2.10;;
13171;SDS011;6651;53.200;10.432;2022-08-03T14:49:36;4.65;;;1.90;;
13171;SDS011;6651;53.200;10.432;2022-08-03T14:52:03;6.00;;;2.20;;
13171;SDS011;6651;53.200;10.432;2022-08-03T14:54:29;3.85;;;1.98;;
13171;SDS011;6651;53.200;10.432;2022-08-03T14:56:55;5.32;;;1.80;;
13171;SDS011;6651;53.200;10.432;2022-08-03T14:59:21;4.55;;;1.95;;
13171;SDS011;6651;53.200;10.432;2022-08-03T15:01:47;6.00;;;1.92;;
13171;SDS011;6651;53.200;10.432;2022-08-03T15:04:13;5.15;;;1.90;;
13171;SDS011;6651;53.200;10.432;2022-08-03T15:06:39;3.20;;;1.70;;
13171;SDS011;6651;53.200;10.432;2022-08-03T15:09:05;3.42;;;1.70;;
13171;SDS011;6651;53.200;10.432;2022-08-03T15:11:31;4.57;;;1.88;;
13171;SDS011;6651;53.200;10.432;2022-08-03T15:13:57;4.38;;;1.95;;
13171;SDS011;6651;53.200;10.432;2022-08-03T15:16:24;4.53;;;2.00;;
13171;SDS011;6651;53.200;10.432;2022-08-03T15:18:50;3.95;;;1.90;;
13171;SDS011;6651;53.200;10.432;2022-08-03T15:21:16;2.67;;;1.90;;
13171;SDS011;6651;53.200;10.432;2022-08-03T15:23:42;5.55;;;2.03;;
13171;SDS011;6651;53.200;10.432;2022-08-03T15:26:08;3.17;;;1.90;;
13171;SDS011;6651;53.200;10.432;2022-08-03T15:28:34;5.90;;;2.10;;